sensor_id;sensor_type;location;lat;lon;timestamp;pressure;altitude;pressure_sealevel;temperature;humidity
56070;BME280;41944;52.078;-0.058;2022-08-01T00:02:18;101635.95;;;18.19;83.77
56070;BME280;41944;52.078;-0.058;2022-08-01T00:04:45;101632.82;;;18.07;84.43
56070;BME280;41944;52.078;-0.058;2022-08-01T00:07:13;101637.14;;;18.08;83.95
56070;BME280;41944;52.078;-0.058;2022-08-01T00:09:40;101646.43;;;17.78;85.59
56070;BME280;41944;52.078;-0.058;2022-08-01T00:12:07;101640.18;;;17.90;85.44
56070;BME280;41944;52.078;-0.058;2022-08-01T00:14:34;101633.61;;;17.88;84.62
56070;BME280;41944;52.078;-0.058;2022-08-01T00:17:02;101633.25;;;17.87;84.40
56070;BME280;41944;52.078;-0.058;2022-08-01T00:19:30;101640.27;;;17.73;85.66
56070;BME280;41944;52.078;-0.058;2022-08-01T00:21:56;101639.57;;;17.70;85.30
56070;BME280;41944;52.078;-0.058;2022-08-01T00:24:23;101635.10;;;17.61;85.36
56070;BME280;41944;52.078;-0.058;2022-08-01T00:26:50;101632.94;;;17.58;85.89
56070;BME280;41944;52.078;-0.058;2022-08-01T00:29:17;101630.82;;;17.79;84.51
56070;BME280;41944;52.078;-0.058;2022-08-01T00:31:44;101630.33;;;17.65;85.57
56070;BME280;41944;52.078;-0.058;2022-08-01T00:34:11;101634.23;;;17.46;86.55
56070;BME280;41944;52.078;-0.058;2022-08-01T00:36:37;101642.24;;;17.39;87.01
56070;BME280;41944;52.078;-0.058;2022-08-01T00:39:04;101643.72;;;17.38;87.28
56070;BME280;41944;52.078;-0.058;2022-08-01T00:41:32;101643.08;;;17.43;87.13
56070;BME280;41944;52.078;-0.058;2022-08-01T00:44:03;101639.16;;;17.30;88.02
56070;BME280;41944;52.078;-0.058;2022-08-01T00:46:30;101642.98;;;17.55;87.09
56070;BME280;41944;52.078;-0.058;2022-08-01T00:48:58;101643.19;;;17.65;86.57
56070;BME280;41944;52.078;-0.058;2022-08-01T00:51:25;101636.58;;;17.51;87.67
56070;BME280;41944;52.078;-0.058;2022-08-01T00:53:53;101638.54;;;17.41;88.26
56070;BME280;41944;52.078;-0.058;2022-08-01T00:56:22;101636.78;;;17.52;87.74
56070;BME280;41944;52.078;-0.058;2022-08-01T00:58:51;101636.93;;;17.61;86.63
56070;BME280;41944;52.078;-0.058;2022-08-01T01:01:18;101639.17;;;17.77;86.25
56070;BME280;41944;52.078;-0.058;2022-08-01T01:03:47;101641.10;;;17.99;84.29
56070;BME280;41944;52.078;-0.058;2022-08-01T01:06:25;101641.35;;;17.90;84.79
56070;BME280;41944;52.078;-0.058;2022-08-01T01:09:02;101639.65;;;17.78;85.56
56070;BME280;41944;52.078;-0.058;2022-08-01T01:11:34;101647.77;;;17.70;85.47
56070;BME280;41944;52.078;-0.058;2022-08-01T01:14:05;101653.90;;;17.79;85.18
56070;BME280;41944;52.078;-0.058;2022-08-01T01:16:37;101652.26;;;17.93;83.75
56070;BME280;41944;52.078;-0.058;2022-08-01T01:19:11;101647.80;;;17.92;83.39
56070;BME280;41944;52.078;-0.058;2022-08-01T01:22:00;101650.31;;;17.87;83.66
56070;BME280;41944;52.078;-0.058;2022-08-01T01:24:39;101654.41;;;18.02;83.03
56070;BME280;41944;52.078;-0.058;2022-08-01T01:27:24;101659.57;;;18.04;83.64
56070;BME280;41944;52.078;-0.058;2022-08-01T01:29:56;101663.31;;;18.22;82.17
56070;BME280;41944;52.078;-0.058;2022-08-01T01:32:30;101664.37;;;18.06;83.24
56070;BME280;41944;52.078;-0.058;2022-08-01T01:34:59;101660.72;;;17.99;83.95
56070;BME280;41944;52.078;-0.058;2022-08-01T01:37:28;101655.85;;;17.98;84.40
56070;BME280;41944;52.078;-0.058;2022-08-01T01:39:56;101652.76;;;17.89;85.12
56070;BME280;41944;52.078;-0.058;2022-08-01T01:42:27;101654.72;;;17.91;85.05
56070;BME280;41944;52.078;-0.058;2022-08-01T01:44:55;101651.39;;;17.97;84.96
56070;BME280;41944;52.078;-0.058;2022-08-01T01:47:24;101648.06;;;18.06;84.85
56070;BME280;41944;52.078;-0.058;2022-08-01T01:49:53;101639.76;;;17.97;85.76
56070;BME280;41944;52.078;-0.058;2022-08-01T01:52:23;101628.47;;;17.86;86.08
56070;BME280;41944;52.078;-0.058;2022-08-01T01:54:52;101625.04;;;17.94;85.85
56070;BME280;41944;52.078;-0.058;2022-08-01T01:57:21;101625.87;;;17.90;85.71
56070;BME280;41944;52.078;-0.058;2022-08-01T01:59:50;101625.82;;;17.75;86.26
56070;BME280;41944;52.078;-0.058;2022-08-01T02:02:19;101625.93;;;17.69;86.70
56070;BME280;41944;52.078;-0.058;2022-08-01T02:04:49;101625.95;;;17.63;86.98
56070;BME280;41944;52.078;-0.058;2022-08-01T02:07:20;101629.22;;;17.67;86.58
56070;BME280;41944;52.078;-0.058;2022-08-01T02:09:49;101625.84;;;17.50;87.34
56070;BME280;41944;52.078;-0.058;2022-08-01T02:12:19;101630.51;;;17.43;87.95
56070;BME280;41944;52.078;-0.058;2022-08-01T02:14:47;101634.31;;;17.80;86.80
56070;BME280;41944;52.078;-0.058;2022-08-01T02:17:17;101635.21;;;18.18;84.57
56070;BME280;41944;52.078;-0.058;2022-08-01T02:19:46;101628.80;;;18.24;83.25
56070;BME280;41944;52.078;-0.058;2022-08-01T02:22:18;101627.19;;;17.97;84.06
56070;BME280;41944;52.078;-0.058;2022-08-01T02:24:50;101628.77;;;17.85;84.98
56070;BME280;41944;52.078;-0.058;2022-08-01T02:27:24;101630.06;;;17.74;85.33
56070;BME280;41944;52.078;-0.058;2022-08-01T02:29:56;101629.69;;;17.67;85.32
56070;BME280;41944;52.078;-0.058;2022-08-01T02:32:28;101622.05;;;17.56;86.41
56070;BME280;41944;52.078;-0.058;2022-08-01T02:34:57;101617.20;;;17.52;86.16
56070;BME280;41944;52.078;-0.058;2022-08-01T02:37:29;101617.53;;;17.28;87.48
56070;BME280;41944;52.078;-0.058;2022-08-01T02:39:59;101614.83;;;17.33;87.82
56070;BME280;41944;52.078;-0.058;2022-08-01T02:42:29;101610.48;;;17.25;87.51
56070;BME280;41944;52.078;-0.058;2022-08-01T02:44:58;101611.16;;;17.08;88.43
56070;BME280;41944;52.078;-0.058;2022-08-01T02:47:27;101616.08;;;16.98;89.29
56070;BME280;41944;52.078;-0.058;2022-08-01T02:49:56;101615.90;;;17.15;88.37
56070;BME280;41944;52.078;-0.058;2022-08-01T02:52:25;101615.31;;;17.06;88.43
56070;BME280;41944;52.078;-0.058;2022-08-01T02:54:55;101613.72;;;17.00;88.91
56070;BME280;41944;52.078;-0.058;2022-08-01T02:57:23;101617.60;;;17.00;88.98
56070;BME280;41944;52.078;-0.058;2022-08-01T02:59:52;101617.50;;;17.30;87.69
56070;BME280;41944;52.078;-0.058;2022-08-01T03:02:21;101619.20;;;17.29;86.94
56070;BME280;41944;52.078;-0.058;2022-08-01T03:04:50;101619.19;;;17.24;87.22
56070;BME280;41944;52.078;-0.058;2022-08-01T03:07:20;101620.08;;;17.36;86.66
56070;BME280;41944;52.078;-0.058;2022-08-01T03:09:47;101617.09;;;17.25;86.54
56070;BME280;41944;52.078;-0.058;2022-08-01T03:12:20;101612.86;;;17.23;87.03
56070;BME280;41944;52.078;-0.058;2022-08-01T03:14:51;101614.82;;;17.04;87.76
56070;BME280;41944;52.078;-0.058;2022-08-01T03:17:22;101622.35;;;16.95;88.73
56070;BME280;41944;52.078;-0.058;2022-08-01T03:19:52;101627.09;;;16.83;89.30
56070;BME280;41944;52.078;-0.058;2022-08-01T03:22:22;101628.65;;;16.83;89.54
56070;BME280;41944;52.078;-0.058;2022-08-01T03:24:52;101635.77;;;16.82;89.56
56070;BME280;41944;52.078;-0.058;2022-08-01T03:27:21;101640.21;;;16.75;90.00
56070;BME280;41944;52.078;-0.058;2022-08-01T03:29:49;101636.36;;;16.78;90.10
56070;BME280;41944;52.078;-0.058;2022-08-01T03:32:18;101632.90;;;16.79;89.96
56070;BME280;41944;52.078;-0.058;2022-08-01T03:34:46;101629.91;;;16.89;89.27
56070;BME280;41944;52.078;-0.058;2022-08-01T03:37:23;101628.62;;;16.81;89.77
56070;BME280;41944;52.078;-0.058;2022-08-01T03:39:57;101628.24;;;16.94;88.80
56070;BME280;41944;52.078;-0.058;2022-08-01T03:42:30;101629.88;;;16.92;88.98
56070;BME280;41944;52.078;-0.058;2022-08-01T03:45:02;101622.49;;;16.75;89.97
56070;BME280;41944;52.078;-0.058;2022-08-01T03:47:32;101620.59;;;16.82;89.51
56070;BME280;41944;52.078;-0.058;2022-08-01T03:50:02;101617.17;;;16.78;89.55
56070;BME280;41944;52.078;-0.058;2022-08-01T03:52:31;101616.19;;;16.68;90.19
56070;BME280;41944;52.078;-0.058;2022-08-01T03:55:03;101614.87;;;16.78;89.94
56070;BME280;41944;52.078;-0.058;2022-08-01T03:57:31;101611.75;;;16.70;90.04
56070;BME280;41944;52.078;-0.058;2022-08-01T03:59:59;101617.43;;;16.81;90.15
56070;BME280;41944;52.078;-0.058;2022-08-01T04:02:27;101618.36;;;16.99;88.73
56070;BME280;41944;52.078;-0.058;2022-08-01T04:05:00;101620.18;;;16.92;89.32
56070;BME280;41944;52.078;-0.058;2022-08-01T04:07:30;101625.79;;;16.95;89.51
56070;BME280;41944;52.078;-0.058;2022-08-01T04:09:58;101625.40;;;17.10;88.48
56070;BME280;41944;52.078;-0.058;2022-08-01T04:12:25;101620.65;;;17.27;87.76
56070;BME280;41944;52.078;-0.058;2022-08-01T04:14:51;101626.68;;;17.05;89.46
56070;BME280;41944;52.078;-0.058;2022-08-01T04:17:18;101622.60;;;17.12;89.22
56070;BME280;41944;52.078;-0.058;2022-08-01T04:19:46;101622.74;;;17.12;89.44
56070;BME280;41944;52.078;-0.058;2022-08-01T04:22:14;101619.82;;;17.22;88.71
56070;BME280;41944;52.078;-0.058;2022-08-01T04:24:45;101619.61;;;17.32;88.35
56070;BME280;41944;52.078;-0.058;2022-08-01T04:27:16;101621.32;;;17.42;87.40
56070;BME280;41944;52.078;-0.058;2022-08-01T04:29:47;101622.70;;;17.27;88.22
56070;BME280;41944;52.078;-0.058;2022-08-01T04:32:15;101624.24;;;17.22;88.89
56070;BME280;41944;52.078;-0.058;2022-08-01T04:34:43;101625.84;;;17.31;88.63
56070;BME280;41944;52.078;-0.058;2022-08-01T04:37:11;101623.66;;;17.30;88.84
56070;BME280;41944;52.078;-0.058;2022-08-01T04:39:42;101619.39;;;17.39;88.56
56070;BME280;41944;52.078;-0.058;2022-08-01T04:42:10;101616.25;;;17.48;87.65
56070;BME280;41944;52.078;-0.058;2022-08-01T04:44:38;101615.56;;;17.59;86.57
56070;BME280;41944;52.078;-0.058;2022-08-01T04:47:05;101613.84;;;17.40;86.97
56070;BME280;41944;52.078;-0.058;2022-08-01T04:49:33;101628.19;;;17.36;87.48
56070;BME280;41944;52.078;-0.058;2022-08-01T04:52:00;101638.33;;;17.24;87.93
56070;BME280;41944;52.078;-0.058;2022-08-01T04:54:29;101642.90;;;17.44;87.85
56070;BME280;41944;52.078;-0.058;2022-08-01T04:56:56;101644.51;;;17.60;87.54
56070;BME280;41944;52.078;-0.058;2022-08-01T04:59:23;101644.77;;;17.45;88.31
56070;BME280;41944;52.078;-0.058;2022-08-01T05:01:50;101643.97;;;17.63;87.46
56070;BME280;41944;52.078;-0.058;2022-08-01T05:04:17;101642.56;;;17.51;87.83
56070;BME280;41944;52.078;-0.058;2022-08-01T05:06:44;101639.92;;;17.59;87.77
56070;BME280;41944;52.078;-0.058;2022-08-01T05:09:11;101642.24;;;17.48;88.04
56070;BME280;41944;52.078;-0.058;2022-08-01T05:11:37;101642.88;;;17.84;86.49
56070;BME280;41944;52.078;-0.058;2022-08-01T05:14:04;101644.56;;;17.72;87.18
56070;BME280;41944;52.078;-0.058;2022-08-01T05:16:31;101652.43;;;17.83;86.79
56070;BME280;41944;52.078;-0.058;2022-08-01T05:18:58;101650.47;;;17.82;87.23
56070;BME280;41944;52.078;-0.058;2022-08-01T05:21:25;101647.51;;;17.94;86.42
56070;BME280;41944;52.078;-0.058;2022-08-01T05:23:52;101648.97;;;17.74;87.69
56070;BME280;41944;52.078;-0.058;2022-08-01T05:26:19;101646.02;;;17.85;86.92
56070;BME280;41944;52.078;-0.058;2022-08-01T05:28:46;101643.02;;;17.83;86.52
56070;BME280;41944;52.078;-0.058;2022-08-01T05:31:14;101646.97;;;17.80;86.93
56070;BME280;41944;52.078;-0.058;2022-08-01T05:33:41;101645.38;;;17.80;87.11
56070;BME280;41944;52.078;-0.058;2022-08-01T05:36:08;101639.78;;;17.85;87.15
56070;BME280;41944;52.078;-0.058;2022-08-01T05:38:35;101638.81;;;18.04;86.72
56070;BME280;41944;52.078;-0.058;2022-08-01T05:41:02;101643.88;;;17.99;86.95
56070;BME280;41944;52.078;-0.058;2022-08-01T05:43:29;101641.90;;;17.95;87.52
56070;BME280;41944;52.078;-0.058;2022-08-01T05:45:56;101641.67;;;18.10;87.25
56070;BME280;41944;52.078;-0.058;2022-08-01T05:48:24;101642.08;;;18.24;86.30
56070;BME280;41944;52.078;-0.058;2022-08-01T05:50:51;101642.58;;;18.18;86.58
56070;BME280;41944;52.078;-0.058;2022-08-01T05:53:18;101646.48;;;18.12;86.88
56070;BME280;41944;52.078;-0.058;2022-08-01T05:55:45;101647.02;;;18.39;85.67
56070;BME280;41944;52.078;-0.058;2022-08-01T05:58:12;101648.32;;;18.25;86.25
56070;BME280;41944;52.078;-0.058;2022-08-01T06:00:39;101650.35;;;18.43;85.82
56070;BME280;41944;52.078;-0.058;2022-08-01T06:03:06;101651.53;;;18.60;84.84
56070;BME280;41944;52.078;-0.058;2022-08-01T06:05:34;101648.72;;;18.59;84.72
56070;BME280;41944;52.078;-0.058;2022-08-01T06:08:01;101644.42;;;18.51;85.34
56070;BME280;41944;52.078;-0.058;2022-08-01T06:10:29;101643.11;;;18.71;84.23
56070;BME280;41944;52.078;-0.058;2022-08-01T06:12:56;101644.79;;;18.71;84.16
56070;BME280;41944;52.078;-0.058;2022-08-01T06:15:23;101648.14;;;18.79;83.95
56070;BME280;41944;52.078;-0.058;2022-08-01T06:17:50;101649.06;;;18.88;83.43
56070;BME280;41944;52.078;-0.058;2022-08-01T06:20:17;101654.92;;;18.82;83.74
56070;BME280;41944;52.078;-0.058;2022-08-01T06:22:44;101656.74;;;18.95;83.15
56070;BME280;41944;52.078;-0.058;2022-08-01T06:25:10;101653.48;;;18.96;83.31
56070;BME280;41944;52.078;-0.058;2022-08-01T06:27:38;101649.79;;;19.01;83.20
56070;BME280;41944;52.078;-0.058;2022-08-01T06:30:05;101645.76;;;18.97;83.37
56070;BME280;41944;52.078;-0.058;2022-08-01T06:32:33;101641.00;;;19.00;83.85
56070;BME280;41944;52.078;-0.058;2022-08-01T06:35:00;101642.92;;;19.02;83.96
56070;BME280;41944;52.078;-0.058;2022-08-01T06:37:29;101646.07;;;19.08;83.32
56070;BME280;41944;52.078;-0.058;2022-08-01T06:39:56;101648.19;;;19.23;82.63
56070;BME280;41944;52.078;-0.058;2022-08-01T06:42:23;101651.55;;;19.25;82.57
56070;BME280;41944;52.078;-0.058;2022-08-01T06:44:50;101654.79;;;19.24;82.70
56070;BME280;41944;52.078;-0.058;2022-08-01T06:47:17;101651.51;;;19.35;82.32
56070;BME280;41944;52.078;-0.058;2022-08-01T06:49:44;101652.37;;;19.31;82.58
56070;BME280;41944;52.078;-0.058;2022-08-01T06:52:11;101647.39;;;19.48;82.28
56070;BME280;41944;52.078;-0.058;2022-08-01T06:54:38;101645.08;;;19.58;81.66
56070;BME280;41944;52.078;-0.058;2022-08-01T06:57:06;101647.06;;;19.62;81.33
56070;BME280;41944;52.078;-0.058;2022-08-01T06:59:33;101648.88;;;19.78;80.77
56070;BME280;41944;52.078;-0.058;2022-08-01T07:02:00;101650.06;;;19.73;80.91
56070;BME280;41944;52.078;-0.058;2022-08-01T07:04:27;101655.38;;;19.78;80.67
56070;BME280;41944;52.078;-0.058;2022-08-01T07:06:55;101662.94;;;19.76;80.24
56070;BME280;41944;52.078;-0.058;2022-08-01T07:09:22;101667.03;;;19.73;81.07
56070;BME280;41944;52.078;-0.058;2022-08-01T07:11:49;101669.13;;;19.92;80.05
56070;BME280;41944;52.078;-0.058;2022-08-01T07:14:16;101668.18;;;20.06;79.24
56070;BME280;41944;52.078;-0.058;2022-08-01T07:16:44;101666.47;;;20.00;79.09
56070;BME280;41944;52.078;-0.058;2022-08-01T07:19:11;101662.21;;;20.07;79.28
56070;BME280;41944;52.078;-0.058;2022-08-01T07:21:38;101662.24;;;20.05;79.32
56070;BME280;41944;52.078;-0.058;2022-08-01T07:24:07;101662.81;;;20.08;79.16
56070;BME280;41944;52.078;-0.058;2022-08-01T07:26:34;101664.65;;;20.33;78.20
56070;BME280;41944;52.078;-0.058;2022-08-01T07:29:02;101668.01;;;20.34;77.89
56070;BME280;41944;52.078;-0.058;2022-08-01T07:31:29;101673.19;;;20.54;77.21
56070;BME280;41944;52.078;-0.058;2022-08-01T07:33:56;101674.09;;;20.72;76.19
56070;BME280;41944;52.078;-0.058;2022-08-01T07:36:23;101675.39;;;20.73;76.00
56070;BME280;41944;52.078;-0.058;2022-08-01T07:38:50;101676.89;;;20.69;75.72
56070;BME280;41944;52.078;-0.058;2022-08-01T07:41:17;101678.67;;;20.63;75.64
56070;BME280;41944;52.078;-0.058;2022-08-01T07:43:45;101683.27;;;20.61;76.11
56070;BME280;41944;52.078;-0.058;2022-08-01T07:46:11;101684.60;;;20.66;75.80
56070;BME280;41944;52.078;-0.058;2022-08-01T07:48:38;101686.29;;;20.73;75.91
56070;BME280;41944;52.078;-0.058;2022-08-01T07:51:05;101688.41;;;20.71;76.24
56070;BME280;41944;52.078;-0.058;2022-08-01T07:53:32;101689.84;;;20.68;76.16
56070;BME280;41944;52.078;-0.058;2022-08-01T07:55:59;101688.80;;;20.85;75.28
56070;BME280;41944;52.078;-0.058;2022-08-01T07:58:27;101692.14;;;20.99;74.58
56070;BME280;41944;52.078;-0.058;2022-08-01T08:00:54;101694.25;;;20.93;74.96
56070;BME280;41944;52.078;-0.058;2022-08-01T08:03:21;101698.46;;;20.95;74.85
56070;BME280;41944;52.078;-0.058;2022-08-01T08:05:48;101700.40;;;20.85;74.94
56070;BME280;41944;52.078;-0.058;2022-08-01T08:08:14;101701.88;;;20.75;75.84
56070;BME280;41944;52.078;-0.058;2022-08-01T08:10:42;101702.74;;;20.81;75.07
56070;BME280;41944;52.078;-0.058;2022-08-01T08:13:09;101699.57;;;20.73;76.21
56070;BME280;41944;52.078;-0.058;2022-08-01T08:15:36;101698.30;;;20.93;75.24
56070;BME280;41944;52.078;-0.058;2022-08-01T08:18:04;101697.46;;;21.02;74.55
56070;BME280;41944;52.078;-0.058;2022-08-01T08:20:31;101697.55;;;20.95;74.82
56070;BME280;41944;52.078;-0.058;2022-08-01T08:22:58;101696.40;;;20.97;74.45
56070;BME280;41944;52.078;-0.058;2022-08-01T08:25:26;101692.09;;;21.32;72.70
56070;BME280;41944;52.078;-0.058;2022-08-01T08:27:53;101692.85;;;21.43;72.44
56070;BME280;41944;52.078;-0.058;2022-08-01T08:30:20;101699.65;;;21.39;72.95
56070;BME280;41944;52.078;-0.058;2022-08-01T08:32:47;101701.93;;;21.63;71.58
56070;BME280;41944;52.078;-0.058;2022-08-01T08:35:14;101701.44;;;21.66;71.48
56070;BME280;41944;52.078;-0.058;2022-08-01T08:37:42;101702.50;;;21.62;71.27
56070;BME280;41944;52.078;-0.058;2022-08-01T08:40:10;101693.24;;;21.76;71.07
56070;BME280;41944;52.078;-0.058;2022-08-01T08:42:39;101689.72;;;21.88;70.73
56070;BME280;41944;52.078;-0.058;2022-08-01T08:45:07;101692.90;;;22.06;69.87
56070;BME280;41944;52.078;-0.058;2022-08-01T08:47:35;101687.09;;;21.97;69.88
56070;BME280;41944;52.078;-0.058;2022-08-01T08:50:03;101681.97;;;21.99;69.73
56070;BME280;41944;52.078;-0.058;2022-08-01T08:52:30;101679.48;;;21.90;69.96
56070;BME280;41944;52.078;-0.058;2022-08-01T08:55:02;101676.79;;;21.99;69.83
56070;BME280;41944;52.078;-0.058;2022-08-01T08:57:30;101678.08;;;22.05;69.46
56070;BME280;41944;52.078;-0.058;2022-08-01T08:59:58;101686.39;;;22.18;69.17
56070;BME280;41944;52.078;-0.058;2022-08-01T09:02:24;101692.54;;;22.29;68.47
56070;BME280;41944;52.078;-0.058;2022-08-01T09:04:51;101691.50;;;22.28;69.25
56070;BME280;41944;52.078;-0.058;2022-08-01T09:07:18;101692.54;;;22.70;68.41
56070;BME280;41944;52.078;-0.058;2022-08-01T09:09:45;101692.61;;;22.86;66.54
56070;BME280;41944;52.078;-0.058;2022-08-01T09:12:16;101695.06;;;22.90;65.73
56070;BME280;41944;52.078;-0.058;2022-08-01T09:14:45;101696.05;;;23.09;65.60
56070;BME280;41944;52.078;-0.058;2022-08-01T09:17:14;101691.46;;;23.14;64.96
56070;BME280;41944;52.078;-0.058;2022-08-01T09:19:42;101686.33;;;22.99;65.88
56070;BME280;41944;52.078;-0.058;2022-08-01T09:22:12;101687.96;;;23.21;65.66
56070;BME280;41944;52.078;-0.058;2022-08-01T09:24:41;101688.39;;;23.13;65.68
56070;BME280;41944;52.078;-0.058;2022-08-01T09:27:17;101689.26;;;23.21;65.13
56070;BME280;41944;52.078;-0.058;2022-08-01T09:29:45;101688.74;;;23.29;64.59
56070;BME280;41944;52.078;-0.058;2022-08-01T09:32:12;101687.03;;;23.37;64.13
56070;BME280;41944;52.078;-0.058;2022-08-01T09:34:39;101683.53;;;23.45;63.85
56070;BME280;41944;52.078;-0.058;2022-08-01T09:37:07;101686.54;;;23.58;63.15
56070;BME280;41944;52.078;-0.058;2022-08-01T09:39:36;101686.61;;;23.51;63.23
56070;BME280;41944;52.078;-0.058;2022-08-01T09:42:20;101689.73;;;23.55;63.09
56070;BME280;41944;52.078;-0.058;2022-08-01T09:44:48;101691.00;;;23.63;62.77
56070;BME280;41944;52.078;-0.058;2022-08-01T09:47:16;101690.38;;;23.59;62.51
56070;BME280;41944;52.078;-0.058;2022-08-01T09:49:44;101688.80;;;23.48;63.22
56070;BME280;41944;52.078;-0.058;2022-08-01T09:52:13;101694.12;;;23.67;61.92
56070;BME280;41944;52.078;-0.058;2022-08-01T09:54:42;101696.86;;;23.65;63.04
56070;BME280;41944;52.078;-0.058;2022-08-01T09:57:11;101696.66;;;23.71;62.27
56070;BME280;41944;52.078;-0.058;2022-08-01T09:59:41;101694.95;;;23.69;61.61
56070;BME280;41944;52.078;-0.058;2022-08-01T10:02:10;101690.11;;;23.97;60.50
56070;BME280;41944;52.078;-0.058;2022-08-01T10:04:37;101684.73;;;24.04;60.25
56070;BME280;41944;52.078;-0.058;2022-08-01T10:07:12;101680.91;;;24.13;60.03
56070;BME280;41944;52.078;-0.058;2022-08-01T10:09:39;101685.70;;;24.27;59.11
56070;BME280;41944;52.078;-0.058;2022-08-01T10:12:06;101684.17;;;24.30;58.47
56070;BME280;41944;52.078;-0.058;2022-08-01T10:14:34;101682.62;;;24.12;59.04
56070;BME280;41944;52.078;-0.058;2022-08-01T10:17:03;101682.24;;;24.26;58.89
56070;BME280;41944;52.078;-0.058;2022-08-01T10:19:30;101680.61;;;24.36;57.89
56070;BME280;41944;52.078;-0.058;2022-08-01T10:21:58;101675.39;;;24.54;56.95
56070;BME280;41944;52.078;-0.058;2022-08-01T10:24:28;101671.72;;;24.44;57.86
56070;BME280;41944;52.078;-0.058;2022-08-01T10:26:58;101672.94;;;24.48;57.16
56070;BME280;41944;52.078;-0.058;2022-08-01T10:29:27;101672.07;;;24.66;56.49
56070;BME280;41944;52.078;-0.058;2022-08-01T10:31:54;101669.37;;;24.86;55.65
56070;BME280;41944;52.078;-0.058;2022-08-01T10:34:22;101668.23;;;24.87;54.89
56070;BME280;41944;52.078;-0.058;2022-08-01T10:36:50;101666.82;;;24.72;55.48
56070;BME280;41944;52.078;-0.058;2022-08-01T10:39:18;101668.31;;;24.96;55.72
56070;BME280;41944;52.078;-0.058;2022-08-01T10:41:46;101666.57;;;25.10;55.14
56070;BME280;41944;52.078;-0.058;2022-08-01T10:44:14;101663.65;;;25.42;54.23
56070;BME280;41944;52.078;-0.058;2022-08-01T10:46:46;101661.43;;;25.62;53.09
56070;BME280;41944;52.078;-0.058;2022-08-01T10:49:17;101658.33;;;25.73;53.49
56070;BME280;41944;52.078;-0.058;2022-08-01T10:51:47;101660.04;;;26.03;51.38
56070;BME280;41944;52.078;-0.058;2022-08-01T10:54:15;101652.58;;;25.97;51.88
56070;BME280;41944;52.078;-0.058;2022-08-01T10:56:44;101652.21;;;26.10;51.18
56070;BME280;41944;52.078;-0.058;2022-08-01T10:59:19;101646.03;;;26.45;50.50
56070;BME280;41944;52.078;-0.058;2022-08-01T11:01:56;101643.80;;;26.57;49.63
56070;BME280;41944;52.078;-0.058;2022-08-01T11:04:33;101644.00;;;26.50;51.09
56070;BME280;41944;52.078;-0.058;2022-08-01T11:07:04;101647.61;;;26.69;50.38
56070;BME280;41944;52.078;-0.058;2022-08-01T11:09:43;101646.57;;;26.75;49.17
56070;BME280;41944;52.078;-0.058;2022-08-01T11:12:12;101645.11;;;26.78;48.57
56070;BME280;41944;52.078;-0.058;2022-08-01T11:15:44;101642.97;;;26.48;49.88
56070;BME280;41944;52.078;-0.058;2022-08-01T11:18:30;101647.17;;;26.66;49.65
56070;BME280;41944;52.078;-0.058;2022-08-01T11:20:59;101643.21;;;26.46;49.26
56070;BME280;41944;52.078;-0.058;2022-08-01T11:23:28;101641.22;;;26.12;50.07
56070;BME280;41944;52.078;-0.058;2022-08-01T11:26:14;101637.61;;;26.33;50.49
56070;BME280;41944;52.078;-0.058;2022-08-01T11:28:43;101626.42;;;26.37;50.33
56070;BME280;41944;52.078;-0.058;2022-08-01T11:31:28;101621.91;;;26.45;50.26
56070;BME280;41944;52.078;-0.058;2022-08-01T11:33:56;101622.49;;;26.63;50.15
56070;BME280;41944;52.078;-0.058;2022-08-01T11:36:24;101622.49;;;26.70;49.36
56070;BME280;41944;52.078;-0.058;2022-08-01T11:39:24;101619.65;;;26.82;49.38
56070;BME280;41944;52.078;-0.058;2022-08-01T11:41:51;101617.10;;;27.05;49.13
56070;BME280;41944;52.078;-0.058;2022-08-01T11:44:20;101618.03;;;27.22;49.23
56070;BME280;41944;52.078;-0.058;2022-08-01T11:46:50;101616.61;;;27.17;48.44
56070;BME280;41944;52.078;-0.058;2022-08-01T11:49:43;101617.02;;;27.19;48.53
56070;BME280;41944;52.078;-0.058;2022-08-01T11:52:12;101615.13;;;27.21;48.21
56070;BME280;41944;52.078;-0.058;2022-08-01T11:54:42;101615.86;;;27.21;47.31
56070;BME280;41944;52.078;-0.058;2022-08-01T11:57:10;101614.08;;;27.24;47.68
56070;BME280;41944;52.078;-0.058;2022-08-01T11:59:40;101613.43;;;27.26;48.36
56070;BME280;41944;52.078;-0.058;2022-08-01T12:02:24;101609.47;;;27.23;47.93
56070;BME280;41944;52.078;-0.058;2022-08-01T12:04:56;101608.43;;;27.35;47.93
56070;BME280;41944;52.078;-0.058;2022-08-01T12:07:25;101607.96;;;27.56;47.15
56070;BME280;41944;52.078;-0.058;2022-08-01T12:09:59;101607.06;;;27.44;46.82
56070;BME280;41944;52.078;-0.058;2022-08-01T12:12:27;101604.58;;;27.62;46.77
56070;BME280;41944;52.078;-0.058;2022-08-01T12:14:56;101604.47;;;27.59;46.98
56070;BME280;41944;52.078;-0.058;2022-08-01T12:17:29;101605.16;;;27.85;46.32
56070;BME280;41944;52.078;-0.058;2022-08-01T12:19:56;101603.17;;;27.60;47.42
56070;BME280;41944;52.078;-0.058;2022-08-01T12:22:24;101600.62;;;27.59;47.10
56070;BME280;41944;52.078;-0.058;2022-08-01T12:24:52;101595.71;;;27.67;46.66
56070;BME280;41944;52.078;-0.058;2022-08-01T12:27:28;101592.24;;;27.70;46.97
56070;BME280;41944;52.078;-0.058;2022-08-01T12:29:56;101593.02;;;27.87;46.50
56070;BME280;41944;52.078;-0.058;2022-08-01T12:32:26;101582.90;;;27.94;45.73
56070;BME280;41944;52.078;-0.058;2022-08-01T12:34:55;101576.41;;;28.04;45.84
56070;BME280;41944;52.078;-0.058;2022-08-01T12:37:24;101579.98;;;28.14;45.83
56070;BME280;41944;52.078;-0.058;2022-08-01T12:39:51;101578.58;;;28.29;44.80
56070;BME280;41944;52.078;-0.058;2022-08-01T12:42:18;101577.51;;;28.54;44.70
56070;BME280;41944;52.078;-0.058;2022-08-01T12:44:50;101569.88;;;28.64;44.39
56070;BME280;41944;52.078;-0.058;2022-08-01T12:47:18;101573.05;;;28.52;44.33
56070;BME280;41944;52.078;-0.058;2022-08-01T12:49:47;101574.13;;;28.34;44.36
56070;BME280;41944;52.078;-0.058;2022-08-01T12:52:14;101569.26;;;28.24;45.18